sensor_id;sensor_type;location;lat;lon;timestamp;pressure;altitude;pressure_sealevel;temperature;humidity
67457;BME280;54319;52.038;4.640;2023-04-03T00:00:40;103216.50;;;2.75;80.73
67457;BME280;54319;52.038;4.640;2023-04-03T00:03:07;103234.84;;;2.83;80.97
67457;BME280;54319;52.038;4.640;2023-04-03T00:05:33;103244.00;;;2.81;80.99
67457;BME280;54319;52.038;4.640;2023-04-03T00:08:00;103180.88;;;2.43;80.99
67457;BME280;54319;52.038;4.640;2023-04-03T00:10:31;103243.44;;;2.75;80.81
67457;BME280;54319;52.038;4.640;2023-04-03T00:12:57;103248.28;;;2.70;80.72
67457;BME280;54319;52.038;4.640;2023-04-03T00:15:24;103245.03;;;2.65;81.06
67457;BME280;54319;52.038;4.640;2023-04-03T00:17:50;103217.81;;;2.41;81.15
67457;BME280;54319;52.038;4.640;2023-04-03T00:20:17;103249.63;;;2.63;81.48
67457;BME280;54319;52.038;4.640;2023-04-03T00:22:44;103243.59;;;2.59;81.73
67457;BME280;54319;52.038;4.640;2023-04-03T00:25:11;103251.75;;;2.58;81.87
67457;BME280;54319;52.038;4.640;2023-04-03T00:27:39;103233.72;;;2.45;81.53
67457;BME280;54319;52.038;4.640;2023-04-03T00:30:10;103244.28;;;2.49;81.86
67457;BME280;54319;52.038;4.640;2023-04-03T00:32:37;103245.16;;;2.49;81.54
67457;BME280;54319;52.038;4.640;2023-04-03T00:35:06;103248.72;;;2.50;80.77
67457;BME280;54319;52.038;4.640;2023-04-03T00:37:33;103253.34;;;2.48;80.74
67457;BME280;54319;52.038;4.640;2023-04-03T00:39:59;103249.00;;;2.45;80.82
67457;BME280;54319;52.038;4.640;2023-04-03T00:42:26;103250.72;;;2.46;80.30
67457;BME280;54319;52.038;4.640;2023-04-03T00:48:01;103254.38;;;2.45;80.06
67457;BME280;54319;52.038;4.640;2023-04-03T00:50:32;103253.63;;;2.43;80.24
67457;BME280;54319;52.038;4.640;2023-04-03T00:53:00;103250.28;;;2.39;80.27
67457;BME280;54319;52.038;4.640;2023-04-03T00:55:28;103247.56;;;2.39;80.01
67457;BME280;54319;52.038;4.640;2023-04-03T00:57:55;103254.91;;;2.37;80.09
67457;BME280;54319;52.038;4.640;2023-04-03T01:00:23;103255.75;;;2.38;80.05
67457;BME280;54319;52.038;4.640;2023-04-03T01:02:51;103236.03;;;2.23;79.90
67457;BME280;54319;52.038;4.640;2023-04-03T01:05:20;103251.31;;;2.37;79.55
67457;BME280;54319;52.038;4.640;2023-04-03T01:07:48;103255.84;;;2.36;79.31
67457;BME280;54319;52.038;4.640;2023-04-03T01:10:17;103263.44;;;2.44;79.69
67457;BME280;54319;52.038;4.640;2023-04-03T01:12:47;103264.50;;;2.41;79.24
67457;BME280;54319;52.038;4.640;2023-04-03T01:15:16;103257.38;;;2.40;79.33
67457;BME280;54319;52.038;4.640;2023-04-03T01:17:45;103261.03;;;2.39;79.19
67457;BME280;54319;52.038;4.640;2023-04-03T01:23:53;103235.19;;;2.22;79.55
67457;BME280;54319;52.038;4.640;2023-04-03T01:26:21;103260.38;;;2.36;79.34
67457;BME280;54319;52.038;4.640;2023-04-03T01:28:48;103258.63;;;2.35;79.59
67457;BME280;54319;52.038;4.640;2023-04-03T01:31:20;103267.88;;;2.30;79.59
67457;BME280;54319;52.038;4.640;2023-04-03T01:33:50;103267.19;;;2.27;79.44
67457;BME280;54319;52.038;4.640;2023-04-03T01:36:20;103264.50;;;2.27;79.46
67457;BME280;54319;52.038;4.640;2023-04-03T01:38:46;103269.31;;;2.22;79.69
67457;BME280;54319;52.038;4.640;2023-04-03T01:41:13;103235.69;;;2.00;80.24
67457;BME280;54319;52.038;4.640;2023-04-03T01:43:40;103267.78;;;2.17;80.06
67457;BME280;54319;52.038;4.640;2023-04-03T01:46:07;103267.13;;;2.14;80.38
67457;BME280;54319;52.038;4.640;2023-04-03T01:48:34;103265.59;;;2.10;80.45
67457;BME280;54319;52.038;4.640;2023-04-03T01:51:02;103263.38;;;2.02;81.10
67457;BME280;54319;52.038;4.640;2023-04-03T01:53:29;103253.97;;;1.95;81.04
67457;BME280;54319;52.038;4.640;2023-04-03T01:55:55;103253.84;;;1.96;81.63
67457;BME280;54319;52.038;4.640;2023-04-03T01:58:22;103257.88;;;1.89;81.39
67457;BME280;54319;52.038;4.640;2023-04-03T02:00:48;103258.94;;;1.86;81.55
67457;BME280;54319;52.038;4.640;2023-04-03T02:03:15;103265.06;;;1.88;81.71
67457;BME280;54319;52.038;4.640;2023-04-03T02:05:41;103259.88;;;1.85;81.50
67457;BME280;54319;52.038;4.640;2023-04-03T02:08:09;103273.53;;;1.82;81.67
67457;BME280;54319;52.038;4.640;2023-04-03T02:10:36;103272.88;;;1.79;82.04
67457;BME280;54319;52.038;4.640;2023-04-03T02:13:03;103277.56;;;1.75;82.02
67457;BME280;54319;52.038;4.640;2023-04-03T02:15:30;103284.88;;;1.73;82.16
67457;BME280;54319;52.038;4.640;2023-04-03T02:17:56;103284.19;;;1.69;82.94
67457;BME280;54319;52.038;4.640;2023-04-03T02:20:23;103279.88;;;1.67;82.89
67457;BME280;54319;52.038;4.640;2023-04-03T02:22:51;103282.84;;;1.62;82.83
67457;BME280;54319;52.038;4.640;2023-04-03T02:25:19;103286.47;;;1.61;83.12
67457;BME280;54319;52.038;4.640;2023-04-03T02:27:45;103287.75;;;1.55;83.07
67457;BME280;54319;52.038;4.640;2023-04-03T02:30:12;103290.69;;;1.51;83.45
67457;BME280;54319;52.038;4.640;2023-04-03T02:32:40;103292.59;;;1.49;83.88
67457;BME280;54319;52.038;4.640;2023-04-03T02:35:08;103297.22;;;1.47;83.88
67457;BME280;54319;52.038;4.640;2023-04-03T02:37:35;103296.63;;;1.41;84.13
67457;BME280;54319;52.038;4.640;2023-04-03T02:40:01;103295.06;;;1.37;84.07
67457;BME280;54319;52.038;4.640;2023-04-03T02:42:30;103286.50;;;1.30;84.65
67457;BME280;54319;52.038;4.640;2023-04-03T02:44:57;103296.38;;;1.30;84.57
67457;BME280;54319;52.038;4.640;2023-04-03T02:47:25;103303.59;;;1.29;84.99
67457;BME280;54319;52.038;4.640;2023-04-03T02:49:52;103296.66;;;1.25;85.09
67457;BME280;54319;52.038;4.640;2023-04-03T02:52:19;103303.78;;;1.26;85.18
67457;BME280;54319;52.038;4.640;2023-04-03T02:54:45;103301.16;;;1.25;84.97
67457;BME280;54319;52.038;4.640;2023-04-03T02:57:12;103303.19;;;1.21;85.10
67457;BME280;54319;52.038;4.640;2023-04-03T02:59:40;103304.13;;;1.20;85.74
67457;BME280;54319;52.038;4.640;2023-04-03T03:02:06;103298.94;;;1.17;85.72
67457;BME280;54319;52.038;4.640;2023-04-03T03:04:33;103286.78;;;1.10;85.61
67457;BME280;54319;52.038;4.640;2023-04-03T03:07:00;103302.72;;;1.13;85.65
67457;BME280;54319;52.038;4.640;2023-04-03T03:09:27;103303.78;;;1.10;85.94
67457;BME280;54319;52.038;4.640;2023-04-03T03:11:55;103274.50;;;0.90;86.00
67457;BME280;54319;52.038;4.640;2023-04-03T03:14:22;103303.28;;;1.04;86.42
67457;BME280;54319;52.038;4.640;2023-04-03T03:16:50;103301.81;;;0.98;86.54
67457;BME280;54319;52.038;4.640;2023-04-03T03:19:16;103265.41;;;0.76;86.33
67457;BME280;54319;52.038;4.640;2023-04-03T03:21:43;103309.88;;;0.98;86.83
67457;BME280;54319;52.038;4.640;2023-04-03T03:24:10;103300.09;;;0.97;86.79
67457;BME280;54319;52.038;4.640;2023-04-03T03:26:37;103308.31;;;0.94;86.84
67457;BME280;54319;52.038;4.640;2023-04-03T03:29:03;103308.41;;;0.92;86.99
67457;BME280;54319;52.038;4.640;2023-04-03T03:31:30;103305.91;;;0.89;87.09
67457;BME280;54319;52.038;4.640;2023-04-03T03:33:58;103310.50;;;0.87;87.33
67457;BME280;54319;52.038;4.640;2023-04-03T03:36:25;103313.34;;;0.84;87.46
67457;BME280;54319;52.038;4.640;2023-04-03T03:38:51;103312.47;;;0.83;87.69
67457;BME280;54319;52.038;4.640;2023-04-03T03:41:18;103318.91;;;0.81;87.99
67457;BME280;54319;52.038;4.640;2023-04-03T03:43:44;103303.09;;;0.75;87.77
67457;BME280;54319;52.038;4.640;2023-04-03T03:46:11;103313.78;;;0.76;88.10
67457;BME280;54319;52.038;4.640;2023-04-03T03:48:38;103288.03;;;0.56;87.99
67457;BME280;54319;52.038;4.640;2023-04-03T03:51:06;103318.38;;;0.74;88.22
67457;BME280;54319;52.038;4.640;2023-04-03T03:53:32;103322.03;;;0.73;88.28
67457;BME280;54319;52.038;4.640;2023-04-03T03:55:59;103323.94;;;0.71;88.29
67457;BME280;54319;52.038;4.640;2023-04-03T03:58:26;103317.78;;;0.69;88.15
67457;BME280;54319;52.038;4.640;2023-04-03T04:00:52;103320.53;;;0.67;88.42
67457;BME280;54319;52.038;4.640;2023-04-03T04:03:19;103320.63;;;0.66;88.57
67457;BME280;54319;52.038;4.640;2023-04-03T04:05:47;103314.56;;;0.62;88.79
67457;BME280;54319;52.038;4.640;2023-04-03T04:08:15;103296.03;;;0.57;88.56
67457;BME280;54319;52.038;4.640;2023-04-03T04:10:41;103307.28;;;0.64;88.70
67457;BME280;54319;52.038;4.640;2023-04-03T04:13:08;103312.81;;;0.61;88.73
67457;BME280;54319;52.038;4.640;2023-04-03T04:15:35;103290.28;;;0.48;88.87
67457;BME280;54319;52.038;4.640;2023-04-03T04:18:01;103319.25;;;0.59;89.07
67457;BME280;54319;52.038;4.640;2023-04-03T04:20:28;103323.75;;;0.58;88.84
67457;BME280;54319;52.038;4.640;2023-04-03T04:22:55;103295.22;;;0.39;89.18
67457;BME280;54319;52.038;4.640;2023-04-03T04:25:23;103320.34;;;0.54;89.11
67457;BME280;54319;52.038;4.640;2023-04-03T04:27:50;103326.78;;;0.52;89.26
67457;BME280;54319;52.038;4.640;2023-04-03T04:30:16;103328.56;;;0.51;89.28
67457;BME280;54319;52.038;4.640;2023-04-03T04:32:43;103335.00;;;0.49;89.38
67457;BME280;54319;52.038;4.640;2023-04-03T04:35:10;103332.47;;;0.46;89.75
67457;BME280;54319;52.038;4.640;2023-04-03T04:37:36;103260.25;;;0.07;89.72
67457;BME280;54319;52.038;4.640;2023-04-03T04:40:04;103319.22;;;0.42;89.97
67457;BME280;54319;52.038;4.640;2023-04-03T04:42:32;103320.97;;;0.43;89.93
67457;BME280;54319;52.038;4.640;2023-04-03T04:44:58;103322.88;;;0.41;90.25
67457;BME280;54319;52.038;4.640;2023-04-03T04:47:25;103327.44;;;0.39;89.96
67457;BME280;54319;52.038;4.640;2023-04-03T04:49:52;103295.75;;;0.12;90.19
67457;BME280;54319;52.038;4.640;2023-04-03T04:52:18;103337.47;;;0.36;90.20
67457;BME280;54319;52.038;4.640;2023-04-03T04:54:45;103329.50;;;0.34;90.36
67457;BME280;54319;52.038;4.640;2023-04-03T04:57:11;103337.88;;;0.28;90.60
67457;BME280;54319;52.038;4.640;2023-04-03T04:59:39;103344.03;;;0.30;90.60
67457;BME280;54319;52.038;4.640;2023-04-03T05:02:06;103346.03;;;0.26;90.73
67457;BME280;54319;52.038;4.640;2023-04-03T05:04:33;103337.25;;;0.23;90.81
67457;BME280;54319;52.038;4.640;2023-04-03T05:07:00;103371.16;;;0.25;90.88
67457;BME280;54319;52.038;4.640;2023-04-03T05:09:27;103284.59;;;-0.13;90.80
67457;BME280;54319;52.038;4.640;2023-04-03T05:11:54;103349.13;;;0.19;91.14
67457;BME280;54319;52.038;4.640;2023-04-03T05:14:21;103346.44;;;0.19;91.24
67457;BME280;54319;52.038;4.640;2023-04-03T05:16:49;103354.50;;;0.19;91.21
67457;BME280;54319;52.038;4.640;2023-04-03T05:19:18;103355.44;;;0.18;90.80
67457;BME280;54319;52.038;4.640;2023-04-03T05:21:45;103357.34;;;0.16;91.31
67457;BME280;54319;52.038;4.640;2023-04-03T05:24:11;103355.50;;;0.16;91.58
67457;BME280;54319;52.038;4.640;2023-04-03T05:26:39;103359.06;;;0.17;91.76
67457;BME280;54319;52.038;4.640;2023-04-03T05:29:06;103370.59;;;0.19;91.77
67457;BME280;54319;52.038;4.640;2023-04-03T05:31:32;103357.41;;;0.14;92.08
67457;BME280;54319;52.038;4.640;2023-04-03T05:34:01;103365.06;;;0.22;92.22
67457;BME280;54319;52.038;4.640;2023-04-03T05:36:27;103359.06;;;0.17;92.40
67457;BME280;54319;52.038;4.640;2023-04-03T05:38:54;103364.91;;;0.25;92.14
67457;BME280;54319;52.038;4.640;2023-04-03T05:41:22;103360.81;;;0.18;92.30
67457;BME280;54319;52.038;4.640;2023-04-03T05:43:49;103373.66;;;0.28;92.47
67457;BME280;54319;52.038;4.640;2023-04-03T05:46:18;103372.56;;;0.33;92.43
67457;BME280;54319;52.038;4.640;2023-04-03T05:48:45;103347.06;;;0.24;92.69
67457;BME280;54319;52.038;4.640;2023-04-03T05:51:16;103371.38;;;0.38;92.37
67457;BME280;54319;52.038;4.640;2023-04-03T05:53:44;103366.84;;;0.39;92.59
67457;BME280;54319;52.038;4.640;2023-04-03T05:56:11;103366.63;;;0.43;92.42
67457;BME280;54319;52.038;4.640;2023-04-03T05:58:37;103364.78;;;0.44;92.40
67457;BME280;54319;52.038;4.640;2023-04-03T06:01:04;103374.16;;;0.53;91.95
67457;BME280;54319;52.038;4.640;2023-04-03T06:03:32;103369.56;;;0.55;91.93
67457;BME280;54319;52.038;4.640;2023-04-03T06:05:58;103377.28;;;0.61;92.22
67457;BME280;54319;52.038;4.640;2023-04-03T06:08:27;103382.31;;;0.67;92.09
67457;BME280;54319;52.038;4.640;2023-04-03T06:10:54;103350.78;;;0.55;92.06
67457;BME280;54319;52.038;4.640;2023-04-03T06:13:21;103387.03;;;0.80;91.58
67457;BME280;54319;52.038;4.640;2023-04-03T06:15:48;103381.66;;;0.80;91.36
67457;BME280;54319;52.038;4.640;2023-04-03T06:18:14;103382.72;;;0.93;90.56
67457;BME280;54319;52.038;4.640;2023-04-03T06:20:41;103386.78;;;1.00;90.44
67457;BME280;54319;52.038;4.640;2023-04-03T06:23:07;103391.75;;;1.08;90.00
67457;BME280;54319;52.038;4.640;2023-04-03T06:25:37;103390.53;;;1.14;89.37
67457;BME280;54319;52.038;4.640;2023-04-03T06:28:03;103383.25;;;1.16;89.19
67457;BME280;54319;52.038;4.640;2023-04-03T06:30:30;103388.00;;;1.27;89.35
67457;BME280;54319;52.038;4.640;2023-04-03T06:32:56;103399.28;;;1.34;89.17
67457;BME280;54319;52.038;4.640;2023-04-03T06:35:24;103400.94;;;1.36;89.18
67457;BME280;54319;52.038;4.640;2023-04-03T06:37:51;103401.53;;;1.41;88.90
67457;BME280;54319;52.038;4.640;2023-04-03T06:40:21;103396.63;;;1.48;88.54
67457;BME280;54319;52.038;4.640;2023-04-03T06:42:49;103397.41;;;1.50;88.38
67457;BME280;54319;52.038;4.640;2023-04-03T06:45:16;103402.28;;;1.59;88.10
67457;BME280;54319;52.038;4.640;2023-04-03T06:47:43;103408.34;;;1.63;88.09
67457;BME280;54319;52.038;4.640;2023-04-03T06:50:10;103336.72;;;1.30;87.58
67457;BME280;54319;52.038;4.640;2023-04-03T06:52:39;103405.53;;;1.81;86.68
67457;BME280;54319;52.038;4.640;2023-04-03T06:55:07;103413.13;;;1.88;86.22
67457;BME280;54319;52.038;4.640;2023-04-03T06:57:34;103403.06;;;1.92;85.96
67457;BME280;54319;52.038;4.640;2023-04-03T07:00:04;103415.69;;;2.06;85.72
67457;BME280;54319;52.038;4.640;2023-04-03T07:02:31;103416.34;;;2.55;84.58
67457;BME280;54319;52.038;4.640;2023-04-03T07:04:58;103380.09;;;3.02;82.06
67457;BME280;54319;52.038;4.640;2023-04-03T07:07:25;103416.38;;;3.81;78.09
67457;BME280;54319;52.038;4.640;2023-04-03T07:09:52;103423.94;;;4.55;75.38
67457;BME280;54319;52.038;4.640;2023-04-03T07:12:18;103370.72;;;4.55;72.18
67457;BME280;54319;52.038;4.640;2023-04-03T07:14:45;103420.72;;;5.00;70.86
67457;BME280;54319;52.038;4.640;2023-04-03T07:17:13;103423.94;;;5.18;70.13
67457;BME280;54319;52.038;4.640;2023-04-03T07:19:40;103425.06;;;5.02;70.43
67457;BME280;54319;52.038;4.640;2023-04-03T07:22:06;103430.56;;;5.14;70.58
67457;BME280;54319;52.038;4.640;2023-04-03T07:24:33;103432.22;;;5.03;71.33
67457;BME280;54319;52.038;4.640;2023-04-03T07:27:00;103433.91;;;5.17;70.92
67457;BME280;54319;52.038;4.640;2023-04-03T07:29:27;103434.75;;;5.55;69.60
67457;BME280;54319;52.038;4.640;2023-04-03T07:31:54;103423.22;;;6.25;66.94
67457;BME280;54319;52.038;4.640;2023-04-03T07:34:22;103417.28;;;7.33;63.22
67457;BME280;54319;52.038;4.640;2023-04-03T07:36:49;103435.66;;;8.28;58.54
67457;BME280;54319;52.038;4.640;2023-04-03T07:39:16;103437.97;;;9.16;54.90
67457;BME280;54319;52.038;4.640;2023-04-03T07:41:42;103446.13;;;9.86;53.50
67457;BME280;54319;52.038;4.640;2023-04-03T07:44:09;103456.72;;;10.28;50.52
67457;BME280;54319;52.038;4.640;2023-04-03T07:46:36;103447.34;;;10.61;51.31
67457;BME280;54319;52.038;4.640;2023-04-03T07:49:02;103445.34;;;10.91;49.02
67457;BME280;54319;52.038;4.640;2023-04-03T07:51:32;103452.00;;;10.78;48.33
67457;BME280;54319;52.038;4.640;2023-04-03T07:53:58;103449.91;;;11.28;47.17
67457;BME280;54319;52.038;4.640;2023-04-03T07:56:25;103448.00;;;11.10;47.50
67457;BME280;54319;52.038;4.640;2023-04-03T07:58:52;103459.31;;;11.15;47.73
67457;BME280;54319;52.038;4.640;2023-04-03T08:01:18;103462.56;;;11.01;47.04
67457;BME280;54319;52.038;4.640;2023-04-03T08:03:46;103474.38;;;10.92;46.99
67457;BME280;54319;52.038;4.640;2023-04-03T08:06:12;103465.84;;;11.05;47.76
67457;BME280;54319;52.038;4.640;2023-04-03T08:08:41;103471.03;;;10.98;46.77
67457;BME280;54319;52.038;4.640;2023-04-03T08:11:09;103465.78;;;11.14;46.78
67457;BME280;54319;52.038;4.640;2023-04-03T08:13:36;103454.91;;;11.33;45.93
67457;BME280;54319;52.038;4.640;2023-04-03T08:16:08;103469.63;;;10.94;46.47
67457;BME280;54319;52.038;4.640;2023-04-03T08:18:35;103470.22;;;10.88;46.31
67457;BME280;54319;52.038;4.640;2023-04-03T08:21:05;103466.28;;;10.62;48.27
67457;BME280;54319;52.038;4.640;2023-04-03T08:23:32;103472.38;;;10.07;48.73
67457;BME280;54319;52.038;4.640;2023-04-03T08:26:05;103469.75;;;9.46;50.81
67457;BME280;54319;52.038;4.640;2023-04-03T08:28:32;103474.84;;;8.89;53.12
67457;BME280;54319;52.038;4.640;2023-04-03T08:31:03;103464.91;;;8.35;54.15
67457;BME280;54319;52.038;4.640;2023-04-03T08:33:31;103476.78;;;8.13;55.44
67457;BME280;54319;52.038;4.640;2023-04-03T08:35:57;103480.66;;;7.99;57.31
67457;BME280;54319;52.038;4.640;2023-04-03T08:38:25;103489.56;;;7.68;57.10
67457;BME280;54319;52.038;4.640;2023-04-03T08:41:02;103479.22;;;7.51;55.76
67457;BME280;54319;52.038;4.640;2023-04-03T08:43:38;103489.09;;;7.52;55.90
67457;BME280;54319;52.038;4.640;2023-04-03T08:46:11;103489.84;;;7.43;55.41
67457;BME280;54319;52.038;4.640;2023-04-03T08:48:41;103466.53;;;7.40;55.95
67457;BME280;54319;52.038;4.640;2023-04-03T08:51:13;103476.75;;;7.48;55.54
67457;BME280;54319;52.038;4.640;2023-04-03T08:53:54;103478.97;;;7.43;54.85
67457;BME280;54319;52.038;4.640;2023-04-03T08:56:24;103484.16;;;7.46;55.71
67457;BME280;54319;52.038;4.640;2023-04-03T08:58:55;103481.09;;;7.50;55.41
67457;BME280;54319;52.038;4.640;2023-04-03T09:01:26;103479.38;;;7.82;53.61
67457;BME280;54319;52.038;4.640;2023-04-03T09:03:54;103479.94;;;7.64;52.90
67457;BME280;54319;52.038;4.640;2023-04-03T09:06:23;103474.09;;;7.69;53.05
67457;BME280;54319;52.038;4.640;2023-04-03T09:09:07;103471.53;;;7.56;50.55
67457;BME280;54319;52.038;4.640;2023-04-03T09:11:47;103472.13;;;7.71;50.07
67457;BME280;54319;52.038;4.640;2023-04-03T09:14:23;103463.75;;;7.63;45.43
67457;BME280;54319;52.038;4.640;2023-04-03T09:16:55;103467.81;;;7.68;44.15
67457;BME280;54319;52.038;4.640;2023-04-03T09:19:33;103471.84;;;7.74;46.40
67457;BME280;54319;52.038;4.640;2023-04-03T09:22:13;103470.38;;;7.70;41.65
67457;BME280;54319;52.038;4.640;2023-04-03T09:24:43;103475.56;;;7.85;43.35
67457;BME280;54319;52.038;4.640;2023-04-03T09:27:13;103480.09;;;7.95;42.98
67457;BME280;54319;52.038;4.640;2023-04-03T09:29:42;103474.97;;;8.02;42.15
67457;BME280;54319;52.038;4.640;2023-04-03T09:32:26;103446.59;;;7.95;39.53
67457;BME280;54319;52.038;4.640;2023-04-03T09:34:55;103468.16;;;8.29;38.45
67457;BME280;54319;52.038;4.640;2023-04-03T09:37:40;103460.84;;;8.30;38.51
67457;BME280;54319;52.038;4.640;2023-04-03T09:40:30;103459.94;;;8.19;38.46
67457;BME280;54319;52.038;4.640;2023-04-03T09:43:02;103437.00;;;8.12;41.02
67457;BME280;54319;52.038;4.640;2023-04-03T09:45:30;103448.59;;;8.14;38.43
67457;BME280;54319;52.038;4.640;2023-04-03T09:48:08;103396.59;;;7.86;39.03
67457;BME280;54319;52.038;4.640;2023-04-03T09:50:36;103447.06;;;8.21;39.52
67457;BME280;54319;52.038;4.640;2023-04-03T09:53:07;103445.63;;;8.17;41.23
67457;BME280;54319;52.038;4.640;2023-04-03T09:55:52;103443.16;;;8.35;39.65
67457;BME280;54319;52.038;4.640;2023-04-03T09:58:28;103441.63;;;8.43;37.71
67457;BME280;54319;52.038;4.640;2023-04-03T10:00:57;103449.50;;;8.57;37.86
67457;BME280;54319;52.038;4.640;2023-04-03T10:03:28;103445.50;;;8.61;38.11
67457;BME280;54319;52.038;4.640;2023-04-03T10:05:55;103444.06;;;8.67;38.21
67457;BME280;54319;52.038;4.640;2023-04-03T10:08:24;103446.22;;;8.42;37.52
67457;BME280;54319;52.038;4.640;2023-04-03T10:11:12;103438.31;;;8.39;38.42
67457;BME280;54319;52.038;4.640;2023-04-03T10:13:54;103439.06;;;8.62;39.58
67457;BME280;54319;52.038;4.640;2023-04-03T10:16:26;103427.03;;;8.65;37.63
67457;BME280;54319;52.038;4.640;2023-04-03T10:19:04;103420.81;;;8.84;37.23
67457;BME280;54319;52.038;4.640;2023-04-03T10:21:42;103409.41;;;9.00;39.36
67457;BME280;54319;52.038;4.640;2023-04-03T10:24:13;103413.47;;;9.25;37.56
67457;BME280;54319;52.038;4.640;2023-04-03T10:26:51;103355.91;;;8.79;35.78
67457;BME280;54319;52.038;4.640;2023-04-03T10:29:37;103410.03;;;9.23;34.92
67457;BME280;54319;52.038;4.640;2023-04-03T10:32:29;103396.88;;;9.38;36.11
67457;BME280;54319;52.038;4.640;2023-04-03T10:35:10;103409.63;;;9.28;36.57
67457;BME280;54319;52.038;4.640;2023-04-03T10:37:53;103405.75;;;9.40;36.95
67457;BME280;54319;52.038;4.640;2023-04-03T10:40:30;103399.47;;;9.50;35.93
67457;BME280;54319;52.038;4.640;2023-04-03T10:43:04;103407.09;;;9.56;35.95
67457;BME280;54319;52.038;4.640;2023-04-03T10:45:48;103407.53;;;9.71;34.45
67457;BME280;54319;52.038;4.640;2023-04-03T10:48:26;103402.91;;;9.72;33.64
67457;BME280;54319;52.038;4.640;2023-04-03T10:51:00;103410.94;;;9.83;34.86
67457;BME280;54319;52.038;4.640;2023-04-03T10:53:34;103399.91;;;9.55;32.05
67457;BME280;54319;52.038;4.640;2023-04-03T10:56:09;103413.41;;;9.66;32.42
67457;BME280;54319;52.038;4.640;2023-04-03T10:58:40;103413.09;;;9.60;33.78
67457;BME280;54319;52.038;4.640;2023-04-03T11:01:13;103401.34;;;9.59;34.87
67457;BME280;54319;52.038;4.640;2023-04-03T11:03:43;103399.44;;;9.99;32.59
67457;BME280;54319;52.038;4.640;2023-04-03T11:06:13;103390.84;;;9.94;31.44
67457;BME280;54319;52.038;4.640;2023-04-03T11:08:44;103411.09;;;9.91;31.21
67457;BME280;54319;52.038;4.640;2023-04-03T11:11:16;103402.34;;;9.97;33.45
67457;BME280;54319;52.038;4.640;2023-04-03T11:13:48;103397.44;;;10.01;31.66
67457;BME280;54319;52.038;4.640;2023-04-03T11:16:20;103397.44;;;10.01;31.08
67457;BME280;54319;52.038;4.640;2023-04-03T11:18:54;103389.59;;;9.88;31.74
67457;BME280;54319;52.038;4.640;2023-04-03T11:21:27;103391.59;;;9.86;31.23
67457;BME280;54319;52.038;4.640;2023-04-03T11:23:57;103389.13;;;10.03;32.20
67457;BME280;54319;52.038;4.640;2023-04-03T11:26:27;103376.38;;;9.93;30.27
67457;BME280;54319;52.038;4.640;2023-04-03T11:28:58;103390.97;;;10.12;30.15
67457;BME280;54319;52.038;4.640;2023-04-03T11:31:35;103391.44;;;10.07;29.23
67457;BME280;54319;52.038;4.640;2023-04-03T11:34:15;103385.31;;;10.33;28.06
67457;BME280;54319;52.038;4.640;2023-04-03T11:36:47;103384.56;;;9.93;29.81
67457;BME280;54319;52.038;4.640;2023-04-03T11:39:20;103365.28;;;10.05;29.07
67457;BME280;54319;52.038;4.640;2023-04-03T11:41:49;103363.88;;;10.01;28.87
67457;BME280;54319;52.038;4.640;2023-04-03T11:44:35;103358.84;;;9.96;27.48
67457;BME280;54319;52.038;4.640;2023-04-03T11:47:05;103336.00;;;9.97;28.11
67457;BME280;54319;52.038;4.640;2023-04-03T11:49:55;103343.28;;;10.26;29.35
67457;BME280;54319;52.038;4.640;2023-04-03T11:55:57;103343.31;;;10.64;28.83
67457;BME280;54319;52.038;4.640;2023-04-03T11:58:25;103341.22;;;10.76;26.66
67457;BME280;54319;52.038;4.640;2023-04-03T12:04:09;103350.22;;;10.86;25.93
67457;BME280;54319;52.038;4.640;2023-04-03T12:07:02;103340.09;;;10.68;26.99
67457;BME280;54319;52.038;4.640;2023-04-03T12:09:34;103337.88;;;10.54;26.29
67457;BME280;54319;52.038;4.640;2023-04-03T12:12:22;103332.28;;;10.83;28.15
67457;BME280;54319;52.038;4.640;2023-04-03T12:14:51;103314.25;;;10.91;25.38
67457;BME280;54319;52.038;4.640;2023-04-03T12:17:21;103300.81;;;10.79;26.26
67457;BME280;54319;52.038;4.640;2023-04-03T12:19:52;103318.69;;;10.92;26.90
67457;BME280;54319;52.038;4.640;2023-04-03T12:22:20;103318.47;;;10.85;26.48
67457;BME280;54319;52.038;4.640;2023-04-03T12:24:48;103319.97;;;10.69;27.17
67457;BME280;54319;52.038;4.640;2023-04-03T12:27:33;103320.34;;;10.56;27.49
67457;BME280;54319;52.038;4.640;2023-04-03T12:30:12;103312.94;;;10.95;26.54
67457;BME280;54319;52.038;4.640;2023-04-03T12:33:04;103305.50;;;10.69;27.89
67457;BME280;54319;52.038;4.640;2023-04-03T12:35:44;103308.25;;;10.59;28.11
67457;BME280;54319;52.038;4.640;2023-04-03T12:38:33;103303.41;;;10.53;29.04
67457;BME280;54319;52.038;4.640;2023-04-03T12:41:18;103302.25;;;10.55;30.16
67457;BME280;54319;52.038;4.640;2023-04-03T12:43:58;103302.38;;;10.64;28.85
67457;BME280;54319;52.038;4.640;2023-04-03T12:46:28;103301.44;;;10.45;29.37
67457;BME280;54319;52.038;4.640;2023-04-03T12:49:00;103295.19;;;10.63;29.31
67457;BME280;54319;52.038;4.640;2023-04-03T12:51:34;103308.16;;;10.51;29.92
67457;BME280;54319;52.038;4.640;2023-04-03T12:54:04;103287.34;;;10.50;30.21
67457;BME280;54319;52.038;4.640;2023-04-03T12:56:39;103285.19;;;10.71;31.18
67457;BME280;54319;52.038;4.640;2023-04-03T12:59:15;103279.38;;;10.84;31.28
67457;BME280;54319;52.038;4.640;2023-04-03T13:01:42;103273.44;;;10.71;29.85
67457;BME280;54319;52.038;4.640;2023-04-03T13:04:10;103281.97;;;10.86;30.85
67457;BME280;54319;52.038;4.640;2023-04-03T13:06:41;103273.41;;;10.99;30.37
67457;BME280;54319;52.038;4.640;2023-04-03T13:09:19;103246.97;;;10.71;31.66
67457;BME280;54319;52.038;4.640;2023-04-03T13:11:48;103256.19;;;10.89;30.84
67457;BME280;54319;52.038;4.640;2023-04-03T13:14:17;103220.56;;;10.90;30.61
67457;BME280;54319;52.038;4.640;2023-04-03T13:17:05;103274.25;;;11.18;31.03
67457;BME280;54319;52.038;4.640;2023-04-03T13:19:33;103263.31;;;11.18;30.79
67457;BME280;54319;52.038;4.640;2023-04-03T13:22:03;103253.41;;;11.17;32.46
67457;BME280;54319;52.038;4.640;2023-04-03T13:24:33;103265.16;;;11.17;31.64